首页
METAR-TAF:

METAR-TAF

机场 :

奥黑尔国际机场

芝加哥, 伊利诺伊州, 美国

纬度: 41-58-47N, 经度: 087-54-16W, 海拔: 203米

当前天气观测

该预报发布于20分钟前的13:51 UTC
风速8节,风向西北
温度 -1°C
湿度 74%
气压 1023 hPa
能見度: 16.1公里
阴天层高于1900英尺

METAR: KORD 201351Z 32008KT 10SM OVC019 M01/M05 A3021 RMK AO2 SLP237 T10111050

时间: 08:11 (14:11 UTC)

预报

该预报发布于2小时和41分钟前的11:30 UTC
预报有效从20日的 12点(UTC)到 21日的 18点(UTC)
风速10节,风向西北
能見度: 10公里
散云层高于2000英尺
阴天层高于3500英尺
短暂存在
从 20日的 12点(UTC)到 20日的 13点(UTC)
阴天层高于2000英尺
小雪
从 20日的 1700点(UTC)
风速9节,风向西
能見度: 10公里
散云层高于4000英尺
从 20日的 2000点(UTC)
风速12节,风向西转西南,有时为17节阵风
能見度: 10公里
散云层高于4500英尺
从 21日的 0100点(UTC)
风速15节,风向西转西南,有时为23节阵风
能見度: 10公里
多云层高于6000英尺
从 21日的 0800点(UTC)
风速8节,风向西转西北
能見度: 10公里
多云层高于5000英尺
从 21日的 1600点(UTC)
风速9节,风向
能見度: 10公里
多云层高于5000英尺

TAF: KORD 201130Z 2012/2118 32010KT P6SM SCT020 OVC035 TEMPO 2012/2013 -SN OVC020 FM201700 27009KT P6SM SCT040 FM202000 24012G17KT P6SM SCT045 FM210100 24015G23KT P6SM BKN060 FM210800 29008KT P6SM BKN050 FM211600 01009KT P6SM BKN050

超过4000个机场的气象观测和天气预报(METAR&TAF报告)。

可查询的气象台以黄色和红色小点在地图上表示。

将鼠标移到小点上方,可查看气象台名称。

然后点击查看天气观测和预报。

如需切换地图:点击带黑十字的绿色按钮放大地图;点击带横线的绿色按钮缩小地图;或者点击绿色箭头查看邻近地区的地图。


METAR-TAF: